createdAt,value
2023-03-21T00:04:48.459Z,20.95
2023-03-21T00:10:04.804Z,25.30
2023-03-21T00:15:09.704Z,24.77
2023-03-21T00:20:15.355Z,25.33
2023-03-21T00:25:18.315Z,23.98
2023-03-21T00:30:22.247Z,21.25
2023-03-21T00:35:57.868Z,26.83
2023-03-21T00:40:51.434Z,24.23
2023-03-21T00:45:54.244Z,25.95
2023-03-21T00:51:00.518Z,20.50
2023-03-21T00:56:03.306Z,30.52
2023-03-21T01:01:09.313Z,23.77
2023-03-21T01:06:14.933Z,31.13
2023-03-21T01:11:19.658Z,23.45
2023-03-21T01:16:22.487Z,24.33
2023-03-21T01:21:26.735Z,28.27
2023-03-21T01:26:30.463Z,32.10
2023-03-21T01:31:33.884Z,26.58
2023-03-21T01:36:38.310Z,34.05
2023-03-21T01:41:45.310Z,26.25
2023-03-21T01:47:15.132Z,30.05
2023-03-21T01:52:37.207Z,30.95
2023-03-21T01:58:02.316Z,31.40
2023-03-21T02:03:16.930Z,36.20
2023-03-21T02:08:39.548Z,32.55
2023-03-21T02:13:48.763Z,35.85
2023-03-21T02:19:01.171Z,40.15
2023-03-21T02:24:42.742Z,34.97
2023-03-21T02:30:50.768Z,45.80
2023-03-21T02:36:17.970Z,41.08
2023-03-21T02:41:39.546Z,35.75
2023-03-21T02:46:53.788Z,43.60
2023-03-21T02:52:15.571Z,39.95
2023-03-21T02:57:25.506Z,39.38
2023-03-21T03:02:35.787Z,38.95
2023-03-21T03:07:47.627Z,41.20
2023-03-21T03:13:04.936Z,45.80
2023-03-21T03:18:14.314Z,47.92
2023-03-21T03:23:26.935Z,42.13
2023-03-21T03:33:41.520Z,51.10
2023-03-21T03:38:47.474Z,51.53
2023-03-21T03:43:54.903Z,54.53
2023-03-21T03:49:06.492Z,48.25
2023-03-21T03:54:14.571Z,52.08
2023-03-21T03:59:21.948Z,53.60
2023-03-21T04:04:37.318Z,47.40
2023-03-21T04:09:44.605Z,47.40
2023-03-21T04:14:55.021Z,56.97
2023-03-21T04:20:11.048Z,41.72
2023-03-21T04:25:24.472Z,50.13
2023-03-21T04:30:37.777Z,49.70
2023-03-21T04:35:47.951Z,51.50
2023-03-21T04:40:50.944Z,32.15
2023-03-21T04:45:55.628Z,42.10
2023-03-21T04:50:58.662Z,40.78
2023-03-21T04:56:04.551Z,34.35
2023-03-21T05:01:09.014Z,33.15
2023-03-21T05:06:11.945Z,31.85
2023-03-21T05:11:14.732Z,36.50
2023-03-21T05:16:18.978Z,35.55
2023-03-21T05:21:21.836Z,31.50
2023-03-21T05:26:26.495Z,31.33
2023-03-21T05:31:38.650Z,30.17
2023-03-21T05:36:45.637Z,38.15
2023-03-21T05:41:48.809Z,35.75
2023-03-21T05:46:53.176Z,34.00
2023-03-21T05:52:02.080Z,38.50
2023-03-21T05:57:06.082Z,29.00
2023-03-21T06:02:28.387Z,29.98
2023-03-21T06:07:35.503Z,31.80
2023-03-21T06:12:38.812Z,27.02
2023-03-21T06:18:01.427Z,27.08
2023-03-21T06:23:04.958Z,26.52
2023-03-21T06:28:07.798Z,30.02
2023-03-21T06:33:16.824Z,24.40
2023-03-21T06:38:20.733Z,24.52
2023-03-21T06:43:25.218Z,33.80
2023-03-21T06:48:29.525Z,26.77
2023-03-21T06:53:35.119Z,22.30
2023-03-21T06:59:00.158Z,22.83
2023-03-21T07:04:23.695Z,23.67
2023-03-21T07:09:28.123Z,25.90
2023-03-21T07:14:34.561Z,24.50
2023-03-21T07:19:38.934Z,22.00
2023-03-21T07:24:41.798Z,20.42
2023-03-21T07:29:47.080Z,25.25
2023-03-21T07:34:51.226Z,30.08
2023-03-21T07:39:54.408Z,25.05
2023-03-21T07:45:01.483Z,28.77
2023-03-21T07:50:11.290Z,23.92
2023-03-21T07:55:14.120Z,29.30
2023-03-21T08:00:22.902Z,32.72
2023-03-21T08:05:29.903Z,29.27
2023-03-21T08:10:32.738Z,24.10
2023-03-21T08:15:35.928Z,31.58
2023-03-21T08:20:40.175Z,20.02
2023-03-21T08:25:42.931Z,23.15
2023-03-21T08:30:45.744Z,28.75
2023-03-21T08:35:49.975Z,24.38
2023-03-21T08:40:52.812Z,22.63
2023-03-21T08:45:56.053Z,26.02
2023-03-21T08:51:02.315Z,27.77
2023-03-21T08:56:06.230Z,31.77
2023-03-21T09:01:11.277Z,26.80
2023-03-21T09:06:15.704Z,30.98
2023-03-21T09:11:18.455Z,24.73
2023-03-21T09:16:21.272Z,26.50
2023-03-21T09:21:25.997Z,29.15
2023-03-21T09:26:28.807Z,31.08
2023-03-21T09:31:31.636Z,28.67
2023-03-21T09:36:36.474Z,26.85
2023-03-21T09:41:56.566Z,30.40
2023-03-21T09:47:04.421Z,36.88
2023-03-21T09:52:16.444Z,31.15
2023-03-21T09:57:31.226Z,27.30
2023-03-21T10:02:39.320Z,33.40
2023-03-21T10:07:50.183Z,32.92
2023-03-21T10:12:56.168Z,31.58
2023-03-21T10:18:02.384Z,24.10
2023-03-21T10:23:09.286Z,24.05
2023-03-21T10:28:17.409Z,21.50
2023-03-21T10:33:23.796Z,25.92
2023-03-21T10:38:28.203Z,30.70
2023-03-21T10:43:38.756Z,21.83
2023-03-21T10:48:46.284Z,23.88
2023-03-21T10:53:54.951Z,18.45
2023-03-21T10:59:00.582Z,23.75
2023-03-21T11:04:09.392Z,22.42
2023-03-21T11:09:17.288Z,24.85
2023-03-21T11:14:32.978Z,25.65
2023-03-21T11:19:37.357Z,20.90
2023-03-21T11:24:42.894Z,24.48
2023-03-21T11:29:48.670Z,23.17
2023-03-21T11:34:57.874Z,20.35
2023-03-21T11:40:19.422Z,19.73
2023-03-21T11:45:24.731Z,16.92
2023-03-21T11:50:32.572Z,18.65
2023-03-21T11:55:47.083Z,20.98
2023-03-21T12:00:57.204Z,19.52
2023-03-21T12:06:04.096Z,20.20
2023-03-21T12:11:16.233Z,16.67
2023-03-21T12:16:46.678Z,21.70
2023-03-21T12:22:02.249Z,16.95
2023-03-21T12:27:13.953Z,21.60
2023-03-21T12:32:36.746Z,22.15
2023-03-21T12:43:03.185Z,23.02
2023-03-21T12:48:18.084Z,20.75
2023-03-21T12:53:40.483Z,24.48
2023-03-21T12:58:49.905Z,24.08
2023-03-21T13:04:01.344Z,20.85
2023-03-21T13:09:11.505Z,23.08
2023-03-21T13:14:22.435Z,17.73
2023-03-21T13:19:32.025Z,19.38
2023-03-21T13:24:40.625Z,16.25
2023-03-21T13:29:49.703Z,22.40
2023-03-21T13:34:56.422Z,19.92
2023-03-21T13:40:09.210Z,9.05
2023-03-21T13:45:26.019Z,14.82
2023-03-21T13:50:37.687Z,12.02
2023-03-21T13:55:43.031Z,15.65
2023-03-21T14:01:11.764Z,14.10
2023-03-21T14:06:16.191Z,13.60
2023-03-21T14:11:21.175Z,10.07
2023-03-21T14:16:28.512Z,10.93
2023-03-21T14:21:33.828Z,11.05
2023-03-21T14:26:39.001Z,11.05
2023-03-21T14:31:43.145Z,8.50
2023-03-21T14:36:55.442Z,9.80
2023-03-21T14:42:05.775Z,7.50
2023-03-21T14:47:19.110Z,7.50
2023-03-21T14:52:25.495Z,8.90
2023-03-21T14:57:30.923Z,11.48
2023-03-21T15:02:37.628Z,11.15
2023-03-21T15:07:40.816Z,7.05
2023-03-21T15:12:52.341Z,8.45
2023-03-21T15:18:01.330Z,12.20
2023-03-21T15:23:09.095Z,7.40
2023-03-21T15:28:15.304Z,8.48
2023-03-21T15:33:20.547Z,5.43
2023-03-21T15:38:29.340Z,7.65
2023-03-21T15:43:40.744Z,5.82
2023-03-21T15:48:45.448Z,4.47
2023-03-21T15:53:48.504Z,5.28
2023-03-21T15:58:53.742Z,4.88
2023-03-21T16:04:02.983Z,4.30
2023-03-21T16:09:14.032Z,3.65
2023-03-21T16:14:17.567Z,6.72
2023-03-21T16:19:22.016Z,3.17
2023-03-21T16:24:24.792Z,5.13
2023-03-21T16:29:27.624Z,6.05
2023-03-21T16:34:32.141Z,4.38
2023-03-21T16:39:34.989Z,6.00
2023-03-21T16:44:39.126Z,3.67
2023-03-21T16:49:43.574Z,5.35
2023-03-21T16:54:46.322Z,5.18
2023-03-21T16:59:49.051Z,4.60
2023-03-21T17:04:53.181Z,4.28
2023-03-21T17:09:56.012Z,4.30
2023-03-21T17:14:58.820Z,4.47
2023-03-21T17:20:04.108Z,3.55
2023-03-21T17:25:07.282Z,2.92
2023-03-21T17:30:20.986Z,6.75
2023-03-21T17:35:25.795Z,7.80
2023-03-21T17:40:31.667Z,3.45
2023-03-21T17:45:34.501Z,5.43
2023-03-21T17:50:39.463Z,6.07
2023-03-21T17:55:42.435Z,6.00
2023-03-21T18:00:46.832Z,8.45
2023-03-21T18:05:51.169Z,3.25
2023-03-21T18:10:53.957Z,6.85
2023-03-21T18:15:56.848Z,6.00
2023-03-21T18:21:01.380Z,5.88
2023-03-21T18:26:04.921Z,6.65
2023-03-21T18:31:15.751Z,5.55
2023-03-21T18:36:25.326Z,4.63
2023-03-21T18:41:29.366Z,4.75
2023-03-21T18:46:32.976Z,9.80
2023-03-21T18:51:37.302Z,6.90
2023-03-21T19:07:08.465Z,7.60
2023-03-21T19:12:11.263Z,5.85
2023-03-21T19:18:07.183Z,5.70
2023-03-21T19:22:38.914Z,6.32
2023-03-21T19:27:42.031Z,6.50
2023-03-21T19:32:44.895Z,7.95
2023-03-21T19:37:48.971Z,5.80
2023-03-21T19:42:52.708Z,5.72
2023-03-21T19:47:55.617Z,9.88
2023-03-21T19:53:00.416Z,7.78
2023-03-21T19:58:03.243Z,9.15
2023-03-21T20:03:08.761Z,8.45
2023-03-21T20:08:13.026Z,7.53
2023-03-21T20:13:15.836Z,6.45
2023-03-21T20:18:18.609Z,9.27
2023-03-21T20:23:23.390Z,8.23
2023-03-21T20:28:28.619Z,10.20
2023-03-21T20:33:32.339Z,10.02
2023-03-21T20:38:37.085Z,9.18
2023-03-21T20:54:06.842Z,8.77
2023-03-21T20:59:23.194Z,9.23
2023-03-21T21:04:48.193Z,9.30
2023-03-21T21:09:55.233Z,11.07
2023-03-21T21:14:58.022Z,9.38
2023-03-21T21:20:01.562Z,10.70
2023-03-21T21:25:06.625Z,13.02
2023-03-21T21:30:10.775Z,11.02
2023-03-21T21:35:13.548Z,13.18
2023-03-21T21:40:20.491Z,13.23
2023-03-21T21:45:23.349Z,9.90
2023-03-21T21:50:26.088Z,12.18
2023-03-21T21:55:30.653Z,9.93
2023-03-21T22:00:34.305Z,9.05
2023-03-21T22:05:37.281Z,7.80
2023-03-21T22:10:42.221Z,13.10
2023-03-21T22:15:47.232Z,11.57
2023-03-21T22:20:52.213Z,11.93
2023-03-21T22:25:58.177Z,9.57
2023-03-21T22:31:09.284Z,9.27
2023-03-21T22:36:13.034Z,10.05
2023-03-21T22:41:17.215Z,8.70
2023-03-21T22:46:20.119Z,8.98
2023-03-21T22:51:22.903Z,11.65
2023-03-21T22:56:27.060Z,12.00
2023-03-21T23:01:31.409Z,9.95
2023-03-21T23:06:34.723Z,10.52
2023-03-21T23:11:39.269Z,12.88
2023-03-21T23:16:42.421Z,7.93
2023-03-21T23:21:46.214Z,11.35
2023-03-21T23:26:50.446Z,13.30
2023-03-21T23:31:53.257Z,9.63
2023-03-21T23:36:56.191Z,11.50
2023-03-21T23:42:00.395Z,8.32
2023-03-21T23:47:03.292Z,9.82
2023-03-21T23:52:06.639Z,12.80
2023-03-21T23:57:10.993Z,10.73
